sensor_id;sensor_type;location;lat;lon;timestamp;P1;durP1;ratioP1;P2;durP2;ratioP2
44536;SDS011;30245;51.966;6.292;2023-02-15T00:01:44;17.00;;;12.40;;
44536;SDS011;30245;51.966;6.292;2023-02-15T00:04:12;21.17;;;12.03;;
44536;SDS011;30245;51.966;6.292;2023-02-15T00:06:39;17.40;;;13.50;;
44536;SDS011;30245;51.966;6.292;2023-02-15T00:09:04;21.30;;;14.70;;
44536;SDS011;30245;51.966;6.292;2023-02-15T00:11:30;17.70;;;12.70;;
44536;SDS011;30245;51.966;6.292;2023-02-15T00:14:18;21.47;;;12.50;;
44536;SDS011;30245;51.966;6.292;2023-02-15T00:16:45;18.07;;;11.47;;
44536;SDS011;30245;51.966;6.292;2023-02-15T00:19:12;18.90;;;12.87;;
44536;SDS011;30245;51.966;6.292;2023-02-15T00:21:39;17.43;;;12.47;;
44536;SDS011;30245;51.966;6.292;2023-02-15T00:24:06;15.10;;;10.97;;
44536;SDS011;30245;51.966;6.292;2023-02-15T00:26:33;19.58;;;12.35;;
44536;SDS011;30245;51.966;6.292;2023-02-15T00:28:59;16.70;;;11.07;;
44536;SDS011;30245;51.966;6.292;2023-02-15T00:31:25;16.10;;;11.10;;
44536;SDS011;30245;51.966;6.292;2023-02-15T00:33:51;14.07;;;11.60;;
44536;SDS011;30245;51.966;6.292;2023-02-15T00:36:17;18.87;;;11.60;;
44536;SDS011;30245;51.966;6.292;2023-02-15T00:38:42;19.00;;;11.23;;
44536;SDS011;30245;51.966;6.292;2023-02-15T00:41:08;20.33;;;12.07;;
44536;SDS011;30245;51.966;6.292;2023-02-15T00:43:34;18.30;;;11.97;;
44536;SDS011;30245;51.966;6.292;2023-02-15T00:46:01;20.47;;;12.40;;
44536;SDS011;30245;51.966;6.292;2023-02-15T00:48:28;17.00;;;11.13;;
44536;SDS011;30245;51.966;6.292;2023-02-15T00:50:54;18.17;;;11.57;;
44536;SDS011;30245;51.966;6.292;2023-02-15T00:53:22;17.23;;;10.73;;
44536;SDS011;30245;51.966;6.292;2023-02-15T00:55:48;18.13;;;11.83;;
44536;SDS011;30245;51.966;6.292;2023-02-15T00:58:14;18.43;;;12.33;;
44536;SDS011;30245;51.966;6.292;2023-02-15T01:00:40;17.83;;;12.20;;
44536;SDS011;30245;51.966;6.292;2023-02-15T01:03:07;17.10;;;11.43;;
44536;SDS011;30245;51.966;6.292;2023-02-15T01:05:33;16.27;;;10.97;;
44536;SDS011;30245;51.966;6.292;2023-02-15T01:07:59;21.50;;;13.07;;
44536;SDS011;30245;51.966;6.292;2023-02-15T01:10:25;18.57;;;12.07;;
44536;SDS011;30245;51.966;6.292;2023-02-15T01:12:53;17.23;;;10.77;;
44536;SDS011;30245;51.966;6.292;2023-02-15T01:15:19;20.07;;;12.67;;
44536;SDS011;30245;51.966;6.292;2023-02-15T01:17:45;17.10;;;12.63;;
44536;SDS011;30245;51.966;6.292;2023-02-15T01:20:20;22.00;;;12.27;;
44536;SDS011;30245;51.966;6.292;2023-02-15T01:22:47;19.27;;;12.17;;
44536;SDS011;30245;51.966;6.292;2023-02-15T01:25:15;19.70;;;11.40;;
44536;SDS011;30245;51.966;6.292;2023-02-15T01:27:44;17.13;;;10.50;;
44536;SDS011;30245;51.966;6.292;2023-02-15T01:30:10;15.53;;;10.60;;
44536;SDS011;30245;51.966;6.292;2023-02-15T01:32:36;22.63;;;14.03;;
44536;SDS011;30245;51.966;6.292;2023-02-15T01:35:01;22.87;;;14.03;;
44536;SDS011;30245;51.966;6.292;2023-02-15T01:37:29;25.40;;;14.40;;
44536;SDS011;30245;51.966;6.292;2023-02-15T01:39:56;18.42;;;12.65;;
44536;SDS011;30245;51.966;6.292;2023-02-15T01:42:22;20.73;;;14.43;;
44536;SDS011;30245;51.966;6.292;2023-02-15T01:48:32;20.97;;;15.37;;
44536;SDS011;30245;51.966;6.292;2023-02-15T01:50:56;24.20;;;15.03;;
44536;SDS011;30245;51.966;6.292;2023-02-15T01:53:27;21.30;;;15.07;;
44536;SDS011;30245;51.966;6.292;2023-02-15T01:56:00;21.63;;;13.83;;
44536;SDS011;30245;51.966;6.292;2023-02-15T01:58:30;23.20;;;13.97;;
44536;SDS011;30245;51.966;6.292;2023-02-15T02:00:59;23.92;;;13.95;;
44536;SDS011;30245;51.966;6.292;2023-02-15T02:03:49;20.13;;;13.30;;
44536;SDS011;30245;51.966;6.292;2023-02-15T02:06:27;20.03;;;11.97;;
44536;SDS011;30245;51.966;6.292;2023-02-15T02:08:54;19.53;;;12.83;;
44536;SDS011;30245;51.966;6.292;2023-02-15T02:11:21;17.10;;;11.93;;
44536;SDS011;30245;51.966;6.292;2023-02-15T02:13:47;19.50;;;13.13;;
44536;SDS011;30245;51.966;6.292;2023-02-15T02:16:19;20.53;;;12.53;;
44536;SDS011;30245;51.966;6.292;2023-02-15T02:29:29;17.00;;;10.43;;
44536;SDS011;30245;51.966;6.292;2023-02-15T02:42:43;18.37;;;12.40;;
44536;SDS011;30245;51.966;6.292;2023-02-15T02:48:05;16.50;;;9.50;;
44536;SDS011;30245;51.966;6.292;2023-02-15T02:50:39;17.58;;;10.20;;
44536;SDS011;30245;51.966;6.292;2023-02-15T02:53:05;18.67;;;12.03;;
44536;SDS011;30245;51.966;6.292;2023-02-15T03:00:39;17.95;;;11.40;;
44536;SDS011;30245;51.966;6.292;2023-02-15T03:03:12;17.00;;;10.90;;
44536;SDS011;30245;51.966;6.292;2023-02-15T03:05:47;19.77;;;10.47;;
44536;SDS011;30245;51.966;6.292;2023-02-15T03:08:16;16.87;;;10.53;;
44536;SDS011;30245;51.966;6.292;2023-02-15T03:10:47;18.20;;;11.70;;
44536;SDS011;30245;51.966;6.292;2023-02-15T03:13:16;18.23;;;11.33;;
44536;SDS011;30245;51.966;6.292;2023-02-15T03:15:42;19.83;;;11.80;;
44536;SDS011;30245;51.966;6.292;2023-02-15T03:18:30;17.70;;;11.83;;
44536;SDS011;30245;51.966;6.292;2023-02-15T03:21:08;18.30;;;12.80;;
44536;SDS011;30245;51.966;6.292;2023-02-15T03:23:46;20.73;;;11.93;;
44536;SDS011;30245;51.966;6.292;2023-02-15T03:26:18;17.30;;;10.20;;
44536;SDS011;30245;51.966;6.292;2023-02-15T03:28:48;16.27;;;11.33;;
44536;SDS011;30245;51.966;6.292;2023-02-15T03:31:17;20.23;;;11.33;;
44536;SDS011;30245;51.966;6.292;2023-02-15T03:33:52;18.33;;;10.70;;
44536;SDS011;30245;51.966;6.292;2023-02-15T03:36:26;18.80;;;10.93;;
44536;SDS011;30245;51.966;6.292;2023-02-15T03:38:59;17.17;;;11.03;;
44536;SDS011;30245;51.966;6.292;2023-02-15T03:41:37;16.67;;;9.97;;
44536;SDS011;30245;51.966;6.292;2023-02-15T03:44:11;17.50;;;11.53;;
44536;SDS011;30245;51.966;6.292;2023-02-15T03:49:11;21.73;;;13.23;;
44536;SDS011;30245;51.966;6.292;2023-02-15T03:51:40;18.13;;;10.97;;
44536;SDS011;30245;51.966;6.292;2023-02-15T03:54:19;18.60;;;11.63;;
44536;SDS011;30245;51.966;6.292;2023-02-15T03:57:13;18.43;;;11.43;;
44536;SDS011;30245;51.966;6.292;2023-02-15T04:00:00;17.27;;;10.43;;
44536;SDS011;30245;51.966;6.292;2023-02-15T04:05:39;18.97;;;9.90;;
44536;SDS011;30245;51.966;6.292;2023-02-15T04:08:06;19.63;;;10.93;;
44536;SDS011;30245;51.966;6.292;2023-02-15T04:10:32;16.00;;;10.30;;
44536;SDS011;30245;51.966;6.292;2023-02-15T04:13:17;17.23;;;10.70;;
44536;SDS011;30245;51.966;6.292;2023-02-15T04:15:43;18.07;;;11.37;;
44536;SDS011;30245;51.966;6.292;2023-02-15T04:18:27;20.17;;;12.07;;
44536;SDS011;30245;51.966;6.292;2023-02-15T04:21:12;19.70;;;10.93;;
44536;SDS011;30245;51.966;6.292;2023-02-15T04:23:55;18.37;;;11.10;;
44536;SDS011;30245;51.966;6.292;2023-02-15T04:26:39;20.63;;;11.33;;
44536;SDS011;30245;51.966;6.292;2023-02-15T04:29:05;18.93;;;10.70;;
44536;SDS011;30245;51.966;6.292;2023-02-15T04:31:30;18.77;;;10.47;;
44536;SDS011;30245;51.966;6.292;2023-02-15T04:33:56;17.03;;;10.80;;
44536;SDS011;30245;51.966;6.292;2023-02-15T04:36:21;20.50;;;12.17;;
44536;SDS011;30245;51.966;6.292;2023-02-15T04:38:47;19.33;;;11.57;;
44536;SDS011;30245;51.966;6.292;2023-02-15T04:41:13;23.07;;;13.03;;
44536;SDS011;30245;51.966;6.292;2023-02-15T04:43:38;19.23;;;13.23;;
44536;SDS011;30245;51.966;6.292;2023-02-15T04:46:04;22.53;;;13.50;;
44536;SDS011;30245;51.966;6.292;2023-02-15T04:48:29;22.77;;;11.90;;
44536;SDS011;30245;51.966;6.292;2023-02-15T04:50:55;23.40;;;15.13;;
44536;SDS011;30245;51.966;6.292;2023-02-15T04:53:21;19.17;;;11.53;;
44536;SDS011;30245;51.966;6.292;2023-02-15T04:55:46;24.23;;;13.57;;
44536;SDS011;30245;51.966;6.292;2023-02-15T04:58:12;24.63;;;14.70;;
44536;SDS011;30245;51.966;6.292;2023-02-15T05:00:37;22.20;;;13.80;;
44536;SDS011;30245;51.966;6.292;2023-02-15T05:03:03;21.07;;;13.27;;
44536;SDS011;30245;51.966;6.292;2023-02-15T05:05:28;19.40;;;13.63;;
44536;SDS011;30245;51.966;6.292;2023-02-15T05:07:54;19.47;;;13.03;;
44536;SDS011;30245;51.966;6.292;2023-02-15T05:10:20;23.10;;;12.97;;
44536;SDS011;30245;51.966;6.292;2023-02-15T05:12:45;25.50;;;13.53;;
44536;SDS011;30245;51.966;6.292;2023-02-15T05:15:11;17.83;;;10.80;;
44536;SDS011;30245;51.966;6.292;2023-02-15T05:17:36;18.40;;;11.37;;
44536;SDS011;30245;51.966;6.292;2023-02-15T05:20:02;20.80;;;12.43;;
44536;SDS011;30245;51.966;6.292;2023-02-15T05:22:29;24.07;;;13.17;;
44536;SDS011;30245;51.966;6.292;2023-02-15T05:24:54;20.40;;;12.83;;
44536;SDS011;30245;51.966;6.292;2023-02-15T05:27:39;18.37;;;11.97;;
44536;SDS011;30245;51.966;6.292;2023-02-15T05:30:23;24.50;;;13.70;;
44536;SDS011;30245;51.966;6.292;2023-02-15T05:32:49;24.70;;;13.53;;
44536;SDS011;30245;51.966;6.292;2023-02-15T05:35:15;24.40;;;13.97;;
44536;SDS011;30245;51.966;6.292;2023-02-15T05:37:41;21.77;;;12.97;;
44536;SDS011;30245;51.966;6.292;2023-02-15T05:40:07;20.63;;;12.20;;
44536;SDS011;30245;51.966;6.292;2023-02-15T05:42:32;22.30;;;12.63;;
44536;SDS011;30245;51.966;6.292;2023-02-15T05:44:58;20.70;;;13.67;;
44536;SDS011;30245;51.966;6.292;2023-02-15T05:47:24;21.17;;;13.60;;
44536;SDS011;30245;51.966;6.292;2023-02-15T05:49:50;21.37;;;13.90;;
44536;SDS011;30245;51.966;6.292;2023-02-15T05:52:15;21.40;;;12.80;;
44536;SDS011;30245;51.966;6.292;2023-02-15T05:54:41;21.90;;;13.57;;
44536;SDS011;30245;51.966;6.292;2023-02-15T05:57:06;21.10;;;12.60;;
44536;SDS011;30245;51.966;6.292;2023-02-15T05:59:32;21.27;;;12.17;;
44536;SDS011;30245;51.966;6.292;2023-02-15T06:01:57;19.60;;;12.23;;
44536;SDS011;30245;51.966;6.292;2023-02-15T06:04:23;23.70;;;13.27;;
44536;SDS011;30245;51.966;6.292;2023-02-15T06:06:48;22.87;;;13.43;;
44536;SDS011;30245;51.966;6.292;2023-02-15T06:09:14;20.33;;;13.13;;
44536;SDS011;30245;51.966;6.292;2023-02-15T06:11:43;20.90;;;13.85;;
44536;SDS011;30245;51.966;6.292;2023-02-15T06:14:09;23.03;;;13.80;;
44536;SDS011;30245;51.966;6.292;2023-02-15T06:16:34;28.47;;;14.73;;
44536;SDS011;30245;51.966;6.292;2023-02-15T06:19:00;26.37;;;12.80;;
44536;SDS011;30245;51.966;6.292;2023-02-15T06:21:26;23.13;;;12.73;;
44536;SDS011;30245;51.966;6.292;2023-02-15T06:23:52;27.07;;;14.43;;
44536;SDS011;30245;51.966;6.292;2023-02-15T06:26:18;22.10;;;14.47;;
44536;SDS011;30245;51.966;6.292;2023-02-15T06:28:43;23.10;;;13.33;;
44536;SDS011;30245;51.966;6.292;2023-02-15T06:31:09;28.17;;;14.73;;
44536;SDS011;30245;51.966;6.292;2023-02-15T06:33:35;22.33;;;14.27;;
44536;SDS011;30245;51.966;6.292;2023-02-15T06:36:00;25.30;;;14.10;;
44536;SDS011;30245;51.966;6.292;2023-02-15T06:38:26;24.47;;;14.40;;
44536;SDS011;30245;51.966;6.292;2023-02-15T06:40:52;24.60;;;14.33;;
44536;SDS011;30245;51.966;6.292;2023-02-15T06:43:18;28.67;;;15.67;;
44536;SDS011;30245;51.966;6.292;2023-02-15T06:45:43;23.97;;;13.63;;
44536;SDS011;30245;51.966;6.292;2023-02-15T06:48:09;30.40;;;16.63;;
44536;SDS011;30245;51.966;6.292;2023-02-15T06:50:36;23.23;;;13.13;;
44536;SDS011;30245;51.966;6.292;2023-02-15T06:53:01;28.47;;;16.17;;
44536;SDS011;30245;51.966;6.292;2023-02-15T06:55:27;25.10;;;14.83;;
44536;SDS011;30245;51.966;6.292;2023-02-15T06:57:53;24.83;;;13.17;;
44536;SDS011;30245;51.966;6.292;2023-02-15T07:00:19;31.33;;;17.37;;
44536;SDS011;30245;51.966;6.292;2023-02-15T07:02:47;27.13;;;15.27;;
44536;SDS011;30245;51.966;6.292;2023-02-15T07:05:12;23.53;;;14.20;;
44536;SDS011;30245;51.966;6.292;2023-02-15T07:07:38;24.10;;;14.47;;
44536;SDS011;30245;51.966;6.292;2023-02-15T07:10:04;27.17;;;15.33;;
44536;SDS011;30245;51.966;6.292;2023-02-15T07:12:30;29.17;;;16.40;;
44536;SDS011;30245;51.966;6.292;2023-02-15T07:15:11;23.40;;;14.70;;
44536;SDS011;30245;51.966;6.292;2023-02-15T07:17:41;22.80;;;13.10;;
44536;SDS011;30245;51.966;6.292;2023-02-15T07:20:11;25.90;;;15.47;;
44536;SDS011;30245;51.966;6.292;2023-02-15T07:22:44;24.17;;;15.17;;
44536;SDS011;30245;51.966;6.292;2023-02-15T07:25:11;23.13;;;14.47;;
44536;SDS011;30245;51.966;6.292;2023-02-15T07:27:37;24.47;;;14.50;;
44536;SDS011;30245;51.966;6.292;2023-02-15T07:30:04;23.57;;;14.43;;
44536;SDS011;30245;51.966;6.292;2023-02-15T07:32:31;27.33;;;14.80;;
44536;SDS011;30245;51.966;6.292;2023-02-15T07:34:57;26.70;;;15.27;;
44536;SDS011;30245;51.966;6.292;2023-02-15T07:37:24;30.47;;;16.63;;
44536;SDS011;30245;51.966;6.292;2023-02-15T07:39:50;28.47;;;16.40;;
44536;SDS011;30245;51.966;6.292;2023-02-15T07:42:15;28.67;;;18.70;;
44536;SDS011;30245;51.966;6.292;2023-02-15T07:44:42;26.23;;;15.60;;
44536;SDS011;30245;51.966;6.292;2023-02-15T07:47:08;29.80;;;17.43;;
44536;SDS011;30245;51.966;6.292;2023-02-15T07:49:33;31.10;;;16.73;;
44536;SDS011;30245;51.966;6.292;2023-02-15T07:52:00;25.27;;;15.93;;
44536;SDS011;30245;51.966;6.292;2023-02-15T07:54:26;30.13;;;17.90;;
44536;SDS011;30245;51.966;6.292;2023-02-15T07:56:52;29.73;;;18.17;;
44536;SDS011;30245;51.966;6.292;2023-02-15T07:59:18;32.17;;;17.90;;
44536;SDS011;30245;51.966;6.292;2023-02-15T08:01:43;31.17;;;16.53;;
44536;SDS011;30245;51.966;6.292;2023-02-15T08:04:09;27.03;;;17.20;;
44536;SDS011;30245;51.966;6.292;2023-02-15T08:06:36;28.97;;;17.17;;
44536;SDS011;30245;51.966;6.292;2023-02-15T08:09:03;26.20;;;16.20;;
44536;SDS011;30245;51.966;6.292;2023-02-15T08:11:31;31.53;;;18.67;;
44536;SDS011;30245;51.966;6.292;2023-02-15T08:13:59;32.73;;;18.47;;
44536;SDS011;30245;51.966;6.292;2023-02-15T08:19:08;37.97;;;19.93;;
44536;SDS011;30245;51.966;6.292;2023-02-15T08:21:39;28.93;;;18.20;;
44536;SDS011;30245;51.966;6.292;2023-02-15T08:24:06;26.03;;;18.13;;
44536;SDS011;30245;51.966;6.292;2023-02-15T08:26:33;29.80;;;19.60;;
44536;SDS011;30245;51.966;6.292;2023-02-15T08:29:00;28.53;;;18.77;;
44536;SDS011;30245;51.966;6.292;2023-02-15T08:31:26;26.10;;;16.87;;
44536;SDS011;30245;51.966;6.292;2023-02-15T08:33:53;28.60;;;19.07;;
44536;SDS011;30245;51.966;6.292;2023-02-15T08:36:21;30.17;;;19.83;;
44536;SDS011;30245;51.966;6.292;2023-02-15T08:38:48;29.67;;;20.65;;
44536;SDS011;30245;51.966;6.292;2023-02-15T08:41:24;30.47;;;18.30;;
44536;SDS011;30245;51.966;6.292;2023-02-15T08:43:52;30.03;;;19.93;;
44536;SDS011;30245;51.966;6.292;2023-02-15T08:46:19;28.60;;;18.00;;
44536;SDS011;30245;51.966;6.292;2023-02-15T08:48:46;29.90;;;17.50;;
44536;SDS011;30245;51.966;6.292;2023-02-15T08:51:13;26.57;;;17.50;;
44536;SDS011;30245;51.966;6.292;2023-02-15T08:53:41;28.27;;;19.33;;
44536;SDS011;30245;51.966;6.292;2023-02-15T08:56:09;25.98;;;17.75;;
44536;SDS011;30245;51.966;6.292;2023-02-15T08:58:35;25.13;;;18.10;;
44536;SDS011;30245;51.966;6.292;2023-02-15T09:01:01;27.53;;;18.20;;
44536;SDS011;30245;51.966;6.292;2023-02-15T09:03:34;21.93;;;16.47;;
44536;SDS011;30245;51.966;6.292;2023-02-15T09:06:00;20.87;;;15.63;;
44536;SDS011;30245;51.966;6.292;2023-02-15T09:08:26;23.87;;;17.37;;
44536;SDS011;30245;51.966;6.292;2023-02-15T09:10:52;21.80;;;16.57;;
44536;SDS011;30245;51.966;6.292;2023-02-15T09:13:18;23.63;;;16.00;;
44536;SDS011;30245;51.966;6.292;2023-02-15T09:15:45;25.60;;;16.77;;
44536;SDS011;30245;51.966;6.292;2023-02-15T09:18:11;24.17;;;16.97;;
44536;SDS011;30245;51.966;6.292;2023-02-15T09:20:41;20.53;;;15.23;;
44536;SDS011;30245;51.966;6.292;2023-02-15T09:23:08;24.00;;;18.20;;
44536;SDS011;30245;51.966;6.292;2023-02-15T09:25:33;22.47;;;16.27;;
44536;SDS011;30245;51.966;6.292;2023-02-15T09:27:59;22.80;;;15.13;;
44536;SDS011;30245;51.966;6.292;2023-02-15T09:30:25;23.70;;;14.90;;
44536;SDS011;30245;51.966;6.292;2023-02-15T09:32:50;22.83;;;16.70;;
44536;SDS011;30245;51.966;6.292;2023-02-15T09:35:16;22.57;;;16.90;;
44536;SDS011;30245;51.966;6.292;2023-02-15T09:37:41;23.70;;;16.93;;
44536;SDS011;30245;51.966;6.292;2023-02-15T09:40:07;20.67;;;14.90;;
44536;SDS011;30245;51.966;6.292;2023-02-15T09:42:37;21.37;;;15.47;;
44536;SDS011;30245;51.966;6.292;2023-02-15T09:45:23;20.03;;;13.77;;
44536;SDS011;30245;51.966;6.292;2023-02-15T09:48:06;19.37;;;14.30;;
44536;SDS011;30245;51.966;6.292;2023-02-15T09:50:59;19.17;;;13.60;;
44536;SDS011;30245;51.966;6.292;2023-02-15T10:01:35;19.77;;;13.68;;
44536;SDS011;30245;51.966;6.292;2023-02-15T10:24:14;17.35;;;12.98;;
44536;SDS011;30245;51.966;6.292;2023-02-15T10:26:55;21.35;;;15.00;;
44536;SDS011;30245;51.966;6.292;2023-02-15T10:29:37;22.35;;;14.48;;
44536;SDS011;30245;51.966;6.292;2023-02-15T10:34:43;23.05;;;14.25;;
44536;SDS011;30245;51.966;6.292;2023-02-15T10:45:30;20.50;;;15.07;;
44536;SDS011;30245;51.966;6.292;2023-02-15T10:51:04;23.05;;;15.80;;
44536;SDS011;30245;51.966;6.292;2023-02-15T11:07:02;17.33;;;13.63;;
44536;SDS011;30245;51.966;6.292;2023-02-15T11:09:36;14.38;;;11.50;;
44536;SDS011;30245;51.966;6.292;2023-02-15T11:12:08;16.35;;;11.68;;
44536;SDS011;30245;51.966;6.292;2023-02-15T11:14:41;15.52;;;11.88;;
44536;SDS011;30245;51.966;6.292;2023-02-15T11:17:17;17.55;;;13.15;;
44536;SDS011;30245;51.966;6.292;2023-02-15T11:19:54;18.20;;;13.48;;
44536;SDS011;30245;51.966;6.292;2023-02-15T11:22:27;17.00;;;12.80;;
44536;SDS011;30245;51.966;6.292;2023-02-15T11:24:55;18.45;;;12.90;;
44536;SDS011;30245;51.966;6.292;2023-02-15T11:27:31;19.73;;;13.60;;
44536;SDS011;30245;51.966;6.292;2023-02-15T11:30:01;17.42;;;13.73;;
44536;SDS011;30245;51.966;6.292;2023-02-15T11:32:40;19.25;;;13.43;;
44536;SDS011;30245;51.966;6.292;2023-02-15T11:37:43;19.90;;;14.60;;
44536;SDS011;30245;51.966;6.292;2023-02-15T11:40:59;14.20;;;11.70;;
44536;SDS011;30245;51.966;6.292;2023-02-15T11:43:13;15.23;;;10.45;;
44536;SDS011;30245;51.966;6.292;2023-02-15T11:45:48;18.77;;;13.40;;
44536;SDS011;30245;51.966;6.292;2023-02-15T11:48:14;18.45;;;13.70;;
44536;SDS011;30245;51.966;6.292;2023-02-15T11:50:41;17.30;;;11.98;;
44536;SDS011;30245;51.966;6.292;2023-02-15T11:53:15;17.38;;;12.73;;
44536;SDS011;30245;51.966;6.292;2023-02-15T11:55:43;19.60;;;13.75;;
44536;SDS011;30245;51.966;6.292;2023-02-15T12:01:09;14.38;;;11.43;;
44536;SDS011;30245;51.966;6.292;2023-02-15T12:06:02;18.75;;;12.90;;
44536;SDS011;30245;51.966;6.292;2023-02-15T12:08:39;16.67;;;12.02;;
44536;SDS011;30245;51.966;6.292;2023-02-15T12:11:15;17.98;;;12.23;;
44536;SDS011;30245;51.966;6.292;2023-02-15T12:13:55;16.02;;;11.95;;
44536;SDS011;30245;51.966;6.292;2023-02-15T12:16:25;14.15;;;10.77;;
44536;SDS011;30245;51.966;6.292;2023-02-15T12:18:53;19.77;;;12.48;;
44536;SDS011;30245;51.966;6.292;2023-02-15T12:21:40;13.25;;;9.15;;
44536;SDS011;30245;51.966;6.292;2023-02-15T12:24:15;13.70;;;10.02;;
44536;SDS011;30245;51.966;6.292;2023-02-15T12:27:02;15.63;;;11.80;;
44536;SDS011;30245;51.966;6.292;2023-02-15T12:29:39;15.43;;;10.07;;
44536;SDS011;30245;51.966;6.292;2023-02-15T12:32:09;14.48;;;10.68;;
44536;SDS011;30245;51.966;6.292;2023-02-15T12:34:43;15.25;;;10.35;;
44536;SDS011;30245;51.966;6.292;2023-02-15T12:37:32;15.70;;;10.75;;
44536;SDS011;30245;51.966;6.292;2023-02-15T12:39:59;14.27;;;11.13;;
44536;SDS011;30245;51.966;6.292;2023-02-15T12:42:28;13.30;;;10.65;;
44536;SDS011;30245;51.966;6.292;2023-02-15T12:50:42;16.50;;;11.57;;
44536;SDS011;30245;51.966;6.292;2023-02-15T12:55:55;14.18;;;10.80;;
44536;SDS011;30245;51.966;6.292;2023-02-15T12:58:29;15.85;;;10.77;;
44536;SDS011;30245;51.966;6.292;2023-02-15T13:03:36;15.70;;;11.55;;
44536;SDS011;30245;51.966;6.292;2023-02-15T13:06:04;16.77;;;11.48;;
44536;SDS011;30245;51.966;6.292;2023-02-15T13:08:34;15.82;;;11.85;;
44536;SDS011;30245;51.966;6.292;2023-02-15T13:11:11;16.98;;;12.20;;
44536;SDS011;30245;51.966;6.292;2023-02-15T13:13:54;12.68;;;9.13;;
44536;SDS011;30245;51.966;6.292;2023-02-15T13:16:34;14.60;;;10.80;;
44536;SDS011;30245;51.966;6.292;2023-02-15T13:19:05;15.45;;;11.07;;
44536;SDS011;30245;51.966;6.292;2023-02-15T13:21:38;16.90;;;11.20;;
44536;SDS011;30245;51.966;6.292;2023-02-15T13:24:10;16.02;;;10.88;;
44536;SDS011;30245;51.966;6.292;2023-02-15T13:26:50;15.63;;;9.85;;
44536;SDS011;30245;51.966;6.292;2023-02-15T13:29:23;16.70;;;12.25;;
44536;SDS011;30245;51.966;6.292;2023-02-15T13:31:50;15.00;;;10.82;;
44536;SDS011;30245;51.966;6.292;2023-02-15T13:34:18;14.45;;;11.00;;
44536;SDS011;30245;51.966;6.292;2023-02-15T13:37:20;21.75;;;11.85;;
44536;SDS011;30245;51.966;6.292;2023-02-15T13:40:00;15.45;;;10.90;;
44536;SDS011;30245;51.966;6.292;2023-02-15T13:42:31;15.13;;;11.23;;
44536;SDS011;30245;51.966;6.292;2023-02-15T13:48:18;18.25;;;11.68;;
44536;SDS011;30245;51.966;6.292;2023-02-15T13:51:10;15.63;;;11.07;;
44536;SDS011;30245;51.966;6.292;2023-02-15T13:57:05;15.63;;;10.13;;
44536;SDS011;30245;51.966;6.292;2023-02-15T14:08:11;15.32;;;12.60;;
44536;SDS011;30245;51.966;6.292;2023-02-15T14:10:59;18.52;;;10.90;;
44536;SDS011;30245;51.966;6.292;2023-02-15T14:13:51;15.77;;;10.55;;
44536;SDS011;30245;51.966;6.292;2023-02-15T14:19:24;16.92;;;11.55;;
44536;SDS011;30245;51.966;6.292;2023-02-15T14:24:38;16.63;;;11.98;;
44536;SDS011;30245;51.966;6.292;2023-02-15T14:30:20;20.67;;;12.52;;
44536;SDS011;30245;51.966;6.292;2023-02-15T14:32:54;19.25;;;12.55;;
44536;SDS011;30245;51.966;6.292;2023-02-15T14:35:26;19.45;;;12.75;;
44536;SDS011;30245;51.966;6.292;2023-02-15T14:49:12;20.65;;;12.55;;
44536;SDS011;30245;51.966;6.292;2023-02-15T14:54:08;16.45;;;12.18;;
44536;SDS011;30245;51.966;6.292;2023-02-15T14:56:43;15.15;;;11.00;;
44536;SDS011;30245;51.966;6.292;2023-02-15T15:04:38;19.98;;;12.18;;
44536;SDS011;30245;51.966;6.292;2023-02-15T15:07:22;16.83;;;11.50;;
44536;SDS011;30245;51.966;6.292;2023-02-15T15:12:52;19.85;;;12.27;;
44536;SDS011;30245;51.966;6.292;2023-02-15T15:17:57;19.75;;;12.45;;
44536;SDS011;30245;51.966;6.292;2023-02-15T15:23:36;18.50;;;12.27;;
44536;SDS011;30245;51.966;6.292;2023-02-15T15:36:54;20.10;;;11.65;;
44536;SDS011;30245;51.966;6.292;2023-02-15T15:43:01;18.30;;;12.30;;
44536;SDS011;30245;51.966;6.292;2023-02-15T15:48:38;20.30;;;12.25;;
44536;SDS011;30245;51.966;6.292;2023-02-15T15:53:40;16.70;;;12.13;;
44536;SDS011;30245;51.966;6.292;2023-02-15T15:56:15;20.35;;;14.32;;
44536;SDS011;30245;51.966;6.292;2023-02-15T15:58:54;20.42;;;13.32;;
44536;SDS011;30245;51.966;6.292;2023-02-15T16:01:24;19.65;;;13.07;;
44536;SDS011;30245;51.966;6.292;2023-02-15T16:03:53;20.27;;;14.25;;
44536;SDS011;30245;51.966;6.292;2023-02-15T16:06:36;20.73;;;12.73;;
44536;SDS011;30245;51.966;6.292;2023-02-15T16:09:13;25.70;;;12.63;;
44536;SDS011;30245;51.966;6.292;2023-02-15T16:11:42;15.32;;;12.18;;
44536;SDS011;30245;51.966;6.292;2023-02-15T16:14:14;21.52;;;13.95;;
44536;SDS011;30245;51.966;6.292;2023-02-15T16:16:46;16.67;;;12.50;;
44536;SDS011;30245;51.966;6.292;2023-02-15T16:19:19;17.00;;;12.57;;
44536;SDS011;30245;51.966;6.292;2023-02-15T16:21:47;20.90;;;12.60;;
44536;SDS011;30245;51.966;6.292;2023-02-15T16:24:17;17.53;;;12.87;;
44536;SDS011;30245;51.966;6.292;2023-02-15T16:27:17;18.50;;;13.00;;
44536;SDS011;30245;51.966;6.292;2023-02-15T16:29:52;18.55;;;12.48;;
44536;SDS011;30245;51.966;6.292;2023-02-15T16:32:22;18.77;;;12.37;;
44536;SDS011;30245;51.966;6.292;2023-02-15T16:34:59;20.20;;;12.93;;
44536;SDS011;30245;51.966;6.292;2023-02-15T16:37:27;19.90;;;13.40;;
44536;SDS011;30245;51.966;6.292;2023-02-15T16:39:58;18.03;;;12.77;;
44536;SDS011;30245;51.966;6.292;2023-02-15T16:42:23;21.17;;;13.87;;
44536;SDS011;30245;51.966;6.292;2023-02-15T16:44:51;26.33;;;14.73;;
44536;SDS011;30245;51.966;6.292;2023-02-15T16:47:28;18.00;;;12.97;;
44536;SDS011;30245;51.966;6.292;2023-02-15T16:49:57;19.67;;;14.13;;
44536;SDS011;30245;51.966;6.292;2023-02-15T16:52:26;19.63;;;13.07;;
44536;SDS011;30245;51.966;6.292;2023-02-15T16:54:55;20.80;;;14.27;;
44536;SDS011;30245;51.966;6.292;2023-02-15T16:57:27;22.07;;;14.23;;
44536;SDS011;30245;51.966;6.292;2023-02-15T17:00:07;20.87;;;13.37;;
44536;SDS011;30245;51.966;6.292;2023-02-15T17:03:39;19.65;;;12.52;;
44536;SDS011;30245;51.966;6.292;2023-02-15T17:05:44;21.93;;;14.40;;
44536;SDS011;30245;51.966;6.292;2023-02-15T17:08:14;19.97;;;13.27;;
44536;SDS011;30245;51.966;6.292;2023-02-15T17:11:11;18.98;;;14.25;;
44536;SDS011;30245;51.966;6.292;2023-02-15T17:13:37;23.67;;;14.57;;
44536;SDS011;30245;51.966;6.292;2023-02-15T17:18:29;20.37;;;13.87;;
44536;SDS011;30245;51.966;6.292;2023-02-15T17:21:08;19.30;;;13.13;;
44536;SDS011;30245;51.966;6.292;2023-02-15T17:23:40;17.83;;;12.50;;
44536;SDS011;30245;51.966;6.292;2023-02-15T17:26:12;18.83;;;13.17;;
44536;SDS011;30245;51.966;6.292;2023-02-15T17:28:46;19.15;;;12.95;;
44536;SDS011;30245;51.966;6.292;2023-02-15T17:31:18;20.07;;;12.47;;
44536;SDS011;30245;51.966;6.292;2023-02-15T17:33:45;19.35;;;13.80;;
44536;SDS011;30245;51.966;6.292;2023-02-15T17:36:16;24.50;;;15.20;;
44536;SDS011;30245;51.966;6.292;2023-02-15T17:39:06;20.73;;;15.30;;
44536;SDS011;30245;51.966;6.292;2023-02-15T17:41:47;21.03;;;13.87;;
44536;SDS011;30245;51.966;6.292;2023-02-15T17:44:12;23.57;;;16.70;;
44536;SDS011;30245;51.966;6.292;2023-02-15T17:46:40;24.83;;;18.13;;
44536;SDS011;30245;51.966;6.292;2023-02-15T17:49:06;30.70;;;18.83;;
44536;SDS011;30245;51.966;6.292;2023-02-15T17:51:39;28.83;;;19.53;;